Greenville Farm
1800 N 800 E, North Logan
Last Weather Update:02/29/2012
Date
ETo
ETc
Rain
Irrigation
Req
Temp
Max
Temp
Min
Temp
Avg
Avg RH
Avg Wind
Avg Solar
inches
inches
incehs
inches
F
F
F
%
%
watts/m2
01/01/2012 0.03" 0.00" 0.00" 0.00" 39.0° 16.2° 25.1° 62.8% 2.5 MPH 8.6w/m2
01/02/2012 0.03" 0.00" 0.00" 0.00" 43.0° 18.3° 28.4° 69.4% 2.2 MPH 8.2w/m2
01/03/2012 0.04" 0.00" 0.00" 0.00" 49.4° 24.6° 34.6° 58.0% 2.7 MPH 8.2w/m2
01/04/2012 0.03" 0.00" 0.00" 0.00" 48.5° 20.9° 31.1° 66.8% 2.4 MPH 8.2w/m2
01/05/2012 0.03" 0.00" 0.00" 0.00" 47.8° 20.7° 32.8° 63.9% 2.7 MPH 7.9w/m2
01/06/2012 0.03" 0.00" 0.00" 0.00" 43.9° 23.4° 31.6° 67.7% 2.0 MPH 8.5w/m2
01/07/2012 0.01" 0.00" 0.16" -0.13" 34.2° 18.1° 27.9° 84.6% 3.5 MPH 3.4w/m2
01/08/2012 0.02" 0.00" 0.00" 0.00" 31.3° 14.5° 23.2° 79.0% 1.4 MPH 5.0w/m2
01/09/2012 0.03" 0.00" 0.00" 0.00" 34.5° 14.9° 23.1° 83.7% 2.2 MPH 8.9w/m2
01/10/2012 0.02" 0.00" 0.00" 0.00" 33.6° 12.2° 23.4° 85.8% 2.3 MPH 6.8w/m2
01/11/2012 0.03" 0.00" 0.00" 0.00" 31.5° 14.1° 24.1° 60.7% 3.1 MPH 9.6w/m2
01/12/2012 0.02" 0.00" 0.00" 0.00" 29.8° 5.5° 15.4° 66.1% 2.1 MPH 9.7w/m2
01/13/2012 0.03" 0.00" 0.00" 0.00" 34.5° 8.3° 19.6° 61.0% 2.1 MPH 9.3w/m2
01/14/2012 0.04" 0.00" 0.00" 0.00" 48.9° 15.0° 27.9° 52.8% 2.9 MPH 9.7w/m2
01/15/2012 0.06" 0.00" 0.00" 0.00" 49.6° 25.1° 40.2° 28.4% 4.3 MPH 2.7w/m2
01/16/2012 0.03" 0.00" 0.01" -0.01" 25.6° 8.5° 19.9° 64.9% 4.8 MPH 6.3w/m2
01/17/2012 0.03" 0.00" 0.01" -0.01" 28.8° 4.5° 16.5° 52.9% 3.6 MPH 9.4w/m2
01/18/2012 0.03" 0.00" 0.05" -0.04" 38.0° 24.3° 32.7° 58.5% 6.3 MPH 2.2w/m2
01/19/2012 0.02" 0.00" 0.59" -0.47" 44.7° 35.9° 39.5° 83.0% 4.7 MPH 1.5w/m2
01/20/2012 0.04" 0.00" 0.18" -0.14" 46.5° 35.4° 40.5° 74.6% 3.2 MPH 5.8w/m2
01/21/2012 0.01" 0.00" 0.59" -0.47" 45.8° 31.3° 36.8° 86.9% 3.8 MPH 0.9w/m2
01/22/2012 0.05" 0.00" 0.10" -0.08" 38.0° 22.6° 30.0° 66.1% 3.4 MPH 10.7w/m2
01/23/2012 0.01" 0.00" 0.01" -0.01" 33.8° 26.4° 29.3° 84.7% 2.1 MPH 4.4w/m2
01/24/2012 0.03" 0.00" 0.02" -0.02" 31.4° 17.0° 25.3° 86.8% 1.9 MPH 9.1w/m2
01/25/2012 0.03" 0.00" 0.00" 0.00" 40.6° 24.0° 31.4° 77.7% 2.4 MPH 7.9w/m2
01/26/2012 0.02" 0.00" 0.05" -0.04" 41.6° 31.3° 35.3° 84.1% 3.0 MPH 1.8w/m2
01/27/2012 0.04" 0.00" 0.00" 0.00" 36.0° 20.6° 28.1° 61.2% 3.4 MPH 9.7w/m2
01/28/2012 0.03" 0.00" 0.00" 0.00" 32.9° 14.0° 22.8° 66.7% 2.7 MPH 10.9w/m2
01/29/2012 0.03" 0.00" 0.00" 0.00" 36.3° 18.9° 25.7° 66.5% 2.6 MPH 9.1w/m2
01/30/2012 0.02" 0.00" 0.00" 0.00" 42.1° 21.5° 30.1° 72.4% 2.6 MPH 5.7w/m2
01/31/2012 0.04" 0.00" 0.00" 0.00" 41.1° 20.3° 29.4° 73.6% 2.7 MPH 10.8w/m2
Totals: 0.94" 0.00" 1.77" -1.42" 49.6° 4.5° 28.4° 69.4% 2.9 MPH 7.1w/m2